sensor_id;sensor_type;location;lat;lon;timestamp;temperature;humidity
39777;DHT22;25453;48.162;14.510;2023-05-03T00:00:38;14.60;76.10
39777;DHT22;25453;48.162;14.510;2023-05-03T00:03:05;14.60;76.00
39777;DHT22;25453;48.162;14.510;2023-05-03T00:05:32;14.60;75.90
39777;DHT22;25453;48.162;14.510;2023-05-03T00:08:00;14.60;75.90
39777;DHT22;25453;48.162;14.510;2023-05-03T00:10:27;14.60;75.70
39777;DHT22;25453;48.162;14.510;2023-05-03T00:12:55;14.60;75.80
39777;DHT22;25453;48.162;14.510;2023-05-03T00:15:23;14.50;75.90
39777;DHT22;25453;48.162;14.510;2023-05-03T00:17:50;14.50;75.80
39777;DHT22;25453;48.162;14.510;2023-05-03T00:20:18;14.50;75.90
39777;DHT22;25453;48.162;14.510;2023-05-03T00:22:47;14.50;75.80
39777;DHT22;25453;48.162;14.510;2023-05-03T00:25:14;14.50;75.80
39777;DHT22;25453;48.162;14.510;2023-05-03T00:27:43;14.50;75.80
39777;DHT22;25453;48.162;14.510;2023-05-03T00:30:10;14.50;75.70
39777;DHT22;25453;48.162;14.510;2023-05-03T00:32:37;14.50;75.70
39777;DHT22;25453;48.162;14.510;2023-05-03T00:35:05;14.50;75.80
39777;DHT22;25453;48.162;14.510;2023-05-03T00:37:33;14.40;75.70
39777;DHT22;25453;48.162;14.510;2023-05-03T00:40:00;14.40;75.90
39777;DHT22;25453;48.162;14.510;2023-05-03T00:42:28;14.40;76.00
39777;DHT22;25453;48.162;14.510;2023-05-03T00:44:59;14.50;76.00
39777;DHT22;25453;48.162;14.510;2023-05-03T00:47:26;14.50;76.00
39777;DHT22;25453;48.162;14.510;2023-05-03T00:49:58;14.50;75.80
39777;DHT22;25453;48.162;14.510;2023-05-03T00:52:26;14.50;75.90
39777;DHT22;25453;48.162;14.510;2023-05-03T00:54:55;14.40;75.90
39777;DHT22;25453;48.162;14.510;2023-05-03T00:57:24;14.40;75.90
39777;DHT22;25453;48.162;14.510;2023-05-03T00:59:52;14.40;75.90
39777;DHT22;25453;48.162;14.510;2023-05-03T01:02:19;14.40;75.80
39777;DHT22;25453;48.162;14.510;2023-05-03T01:04:47;14.40;75.90
39777;DHT22;25453;48.162;14.510;2023-05-03T01:15:10;14.40;76.10
39777;DHT22;25453;48.162;14.510;2023-05-03T01:17:40;14.40;76.10
39777;DHT22;25453;48.162;14.510;2023-05-03T01:20:09;14.40;76.00
39777;DHT22;25453;48.162;14.510;2023-05-03T01:22:41;14.40;76.10
39777;DHT22;25453;48.162;14.510;2023-05-03T01:25:10;14.40;76.30
39777;DHT22;25453;48.162;14.510;2023-05-03T01:27:38;14.40;76.30
39777;DHT22;25453;48.162;14.510;2023-05-03T01:30:09;14.40;76.30
39777;DHT22;25453;48.162;14.510;2023-05-03T01:35:11;14.40;76.20
39777;DHT22;25453;48.162;14.510;2023-05-03T01:37:40;14.40;76.30
39777;DHT22;25453;48.162;14.510;2023-05-03T01:40:08;14.40;76.20
39777;DHT22;25453;48.162;14.510;2023-05-03T01:42:37;14.40;76.30
39777;DHT22;25453;48.162;14.510;2023-05-03T01:45:04;14.50;76.30
39777;DHT22;25453;48.162;14.510;2023-05-03T01:47:32;14.50;76.40
39777;DHT22;25453;48.162;14.510;2023-05-03T01:50:00;14.50;76.30
39777;DHT22;25453;48.162;14.510;2023-05-03T01:52:28;14.50;76.20
39777;DHT22;25453;48.162;14.510;2023-05-03T01:54:59;14.50;76.10
39777;DHT22;25453;48.162;14.510;2023-05-03T01:57:27;14.40;76.10
39777;DHT22;25453;48.162;14.510;2023-05-03T01:59:55;14.40;76.30
39777;DHT22;25453;48.162;14.510;2023-05-03T02:02:22;14.40;76.40
39777;DHT22;25453;48.162;14.510;2023-05-03T02:04:50;14.40;76.50
39777;DHT22;25453;48.162;14.510;2023-05-03T02:07:17;14.40;76.50
39777;DHT22;25453;48.162;14.510;2023-05-03T02:09:44;14.30;76.50
39777;DHT22;25453;48.162;14.510;2023-05-03T02:12:11;14.30;76.50
39777;DHT22;25453;48.162;14.510;2023-05-03T02:14:39;14.30;76.60
39777;DHT22;25453;48.162;14.510;2023-05-03T02:17:07;14.30;76.60
39777;DHT22;25453;48.162;14.510;2023-05-03T02:19:34;14.30;76.80
39777;DHT22;25453;48.162;14.510;2023-05-03T02:22:01;14.30;76.90
39777;DHT22;25453;48.162;14.510;2023-05-03T02:24:29;14.40;76.80
39777;DHT22;25453;48.162;14.510;2023-05-03T02:27:02;14.40;76.70
39777;DHT22;25453;48.162;14.510;2023-05-03T02:29:32;14.40;76.60
39777;DHT22;25453;48.162;14.510;2023-05-03T02:32:00;14.40;76.50
39777;DHT22;25453;48.162;14.510;2023-05-03T02:34:28;14.40;76.60
39777;DHT22;25453;48.162;14.510;2023-05-03T02:36:55;14.50;76.70
39777;DHT22;25453;48.162;14.510;2023-05-03T02:39:22;14.50;76.70
39777;DHT22;25453;48.162;14.510;2023-05-03T02:41:49;14.50;76.70
39777;DHT22;25453;48.162;14.510;2023-05-03T02:44:16;14.50;76.60
39777;DHT22;25453;48.162;14.510;2023-05-03T02:46:47;14.50;76.40
39777;DHT22;25453;48.162;14.510;2023-05-03T02:49:14;14.40;76.40
39777;DHT22;25453;48.162;14.510;2023-05-03T02:51:41;14.40;76.50
39777;DHT22;25453;48.162;14.510;2023-05-03T02:54:09;14.40;76.60
39777;DHT22;25453;48.162;14.510;2023-05-03T02:56:36;14.40;76.70
39777;DHT22;25453;48.162;14.510;2023-05-03T02:59:04;14.30;76.80
39777;DHT22;25453;48.162;14.510;2023-05-03T03:01:33;14.40;76.90
39777;DHT22;25453;48.162;14.510;2023-05-03T03:04:01;14.40;76.80
39777;DHT22;25453;48.162;14.510;2023-05-03T03:06:28;14.40;76.80
39777;DHT22;25453;48.162;14.510;2023-05-03T03:08:55;14.40;76.80
39777;DHT22;25453;48.162;14.510;2023-05-03T03:11:22;14.40;76.80
39777;DHT22;25453;48.162;14.510;2023-05-03T03:13:51;14.40;77.00
39777;DHT22;25453;48.162;14.510;2023-05-03T03:16:18;14.40;77.00
39777;DHT22;25453;48.162;14.510;2023-05-03T03:18:45;14.40;76.90
39777;DHT22;25453;48.162;14.510;2023-05-03T03:21:12;14.40;77.00
39777;DHT22;25453;48.162;14.510;2023-05-03T03:23:39;14.30;77.10
39777;DHT22;25453;48.162;14.510;2023-05-03T03:26:06;14.30;77.20
39777;DHT22;25453;48.162;14.510;2023-05-03T03:28:34;14.30;77.30
39777;DHT22;25453;48.162;14.510;2023-05-03T03:31:01;14.30;77.30
39777;DHT22;25453;48.162;14.510;2023-05-03T03:33:28;14.20;77.40
39777;DHT22;25453;48.162;14.510;2023-05-03T03:35:56;14.20;77.50
39777;DHT22;25453;48.162;14.510;2023-05-03T03:38:23;14.20;77.60
39777;DHT22;25453;48.162;14.510;2023-05-03T03:40:50;14.20;77.70
39777;DHT22;25453;48.162;14.510;2023-05-03T03:43:18;14.20;77.80
39777;DHT22;25453;48.162;14.510;2023-05-03T03:45:45;14.20;77.80
39777;DHT22;25453;48.162;14.510;2023-05-03T03:48:12;14.20;77.80
39777;DHT22;25453;48.162;14.510;2023-05-03T03:50:39;14.30;77.80
39777;DHT22;25453;48.162;14.510;2023-05-03T03:53:07;14.20;77.80
39777;DHT22;25453;48.162;14.510;2023-05-03T03:55:36;14.20;77.80
39777;DHT22;25453;48.162;14.510;2023-05-03T03:58:04;14.20;78.00
39777;DHT22;25453;48.162;14.510;2023-05-03T04:00:32;14.20;78.00
39777;DHT22;25453;48.162;14.510;2023-05-03T04:03:00;14.20;78.00
39777;DHT22;25453;48.162;14.510;2023-05-03T04:05:29;14.20;78.10
39777;DHT22;25453;48.162;14.510;2023-05-03T04:07:59;14.20;78.10
39777;DHT22;25453;48.162;14.510;2023-05-03T04:10:26;14.30;78.00
39777;DHT22;25453;48.162;14.510;2023-05-03T04:12:53;14.20;77.90
39777;DHT22;25453;48.162;14.510;2023-05-03T04:15:21;14.20;78.00
39777;DHT22;25453;48.162;14.510;2023-05-03T04:17:48;14.20;78.10
39777;DHT22;25453;48.162;14.510;2023-05-03T04:20:16;14.20;78.10
39777;DHT22;25453;48.162;14.510;2023-05-03T04:22:44;14.20;78.20
39777;DHT22;25453;48.162;14.510;2023-05-03T04:25:11;14.20;78.20
39777;DHT22;25453;48.162;14.510;2023-05-03T04:27:43;14.20;78.20
39777;DHT22;25453;48.162;14.510;2023-05-03T04:30:11;14.20;78.30
39777;DHT22;25453;48.162;14.510;2023-05-03T04:32:40;14.20;78.40
39777;DHT22;25453;48.162;14.510;2023-05-03T04:35:09;14.20;78.30
39777;DHT22;25453;48.162;14.510;2023-05-03T04:37:36;14.20;78.40
39777;DHT22;25453;48.162;14.510;2023-05-03T04:40:04;14.20;78.40
39777;DHT22;25453;48.162;14.510;2023-05-03T04:42:34;14.20;78.40
39777;DHT22;25453;48.162;14.510;2023-05-03T04:45:02;14.20;78.50
39777;DHT22;25453;48.162;14.510;2023-05-03T04:47:30;14.20;78.50
39777;DHT22;25453;48.162;14.510;2023-05-03T04:49:57;14.30;78.50
39777;DHT22;25453;48.162;14.510;2023-05-03T04:52:25;14.30;78.40
39777;DHT22;25453;48.162;14.510;2023-05-03T04:54:52;14.20;78.30
39777;DHT22;25453;48.162;14.510;2023-05-03T04:57:20;14.20;78.30
39777;DHT22;25453;48.162;14.510;2023-05-03T04:59:47;14.20;78.30
39777;DHT22;25453;48.162;14.510;2023-05-03T05:02:14;14.20;78.40
39777;DHT22;25453;48.162;14.510;2023-05-03T05:04:42;14.20;78.40
39777;DHT22;25453;48.162;14.510;2023-05-03T05:07:09;14.20;78.40
39777;DHT22;25453;48.162;14.510;2023-05-03T05:09:38;14.20;78.60
39777;DHT22;25453;48.162;14.510;2023-05-03T05:12:05;14.20;78.60
39777;DHT22;25453;48.162;14.510;2023-05-03T05:14:33;14.20;78.60
39777;DHT22;25453;48.162;14.510;2023-05-03T05:17:00;14.20;78.70
39777;DHT22;25453;48.162;14.510;2023-05-03T05:19:27;14.30;78.70
39777;DHT22;25453;48.162;14.510;2023-05-03T05:21:54;14.30;78.70
39777;DHT22;25453;48.162;14.510;2023-05-03T05:24:22;14.40;78.70
39777;DHT22;25453;48.162;14.510;2023-05-03T05:26:49;14.40;78.70
39777;DHT22;25453;48.162;14.510;2023-05-03T05:29:17;14.40;78.50
39777;DHT22;25453;48.162;14.510;2023-05-03T05:31:44;14.50;78.50
39777;DHT22;25453;48.162;14.510;2023-05-03T05:34:11;14.50;78.50
39777;DHT22;25453;48.162;14.510;2023-05-03T05:36:39;14.50;78.50
39777;DHT22;25453;48.162;14.510;2023-05-03T05:39:06;14.50;78.40
39777;DHT22;25453;48.162;14.510;2023-05-03T05:41:33;14.60;78.40
39777;DHT22;25453;48.162;14.510;2023-05-03T05:44:00;14.60;78.40
39777;DHT22;25453;48.162;14.510;2023-05-03T05:46:28;14.60;78.10
39777;DHT22;25453;48.162;14.510;2023-05-03T05:48:56;14.60;78.00
39777;DHT22;25453;48.162;14.510;2023-05-03T05:51:23;14.70;78.10
39777;DHT22;25453;48.162;14.510;2023-05-03T05:53:50;14.70;78.10
39777;DHT22;25453;48.162;14.510;2023-05-03T05:56:18;14.70;78.10
39777;DHT22;25453;48.162;14.510;2023-05-03T05:58:48;14.70;78.00
39777;DHT22;25453;48.162;14.510;2023-05-03T06:01:15;14.70;77.80
39777;DHT22;25453;48.162;14.510;2023-05-03T06:03:42;14.70;77.70
39777;DHT22;25453;48.162;14.510;2023-05-03T06:06:10;14.70;77.70
39777;DHT22;25453;48.162;14.510;2023-05-03T06:08:37;14.70;77.60
39777;DHT22;25453;48.162;14.510;2023-05-03T06:11:04;14.70;77.60
39777;DHT22;25453;48.162;14.510;2023-05-03T06:13:31;14.70;77.50
39777;DHT22;25453;48.162;14.510;2023-05-03T06:16:00;14.70;77.40
39777;DHT22;25453;48.162;14.510;2023-05-03T06:18:29;14.70;77.30
39777;DHT22;25453;48.162;14.510;2023-05-03T06:20:57;14.70;77.30
39777;DHT22;25453;48.162;14.510;2023-05-03T06:23:24;14.80;77.30
39777;DHT22;25453;48.162;14.510;2023-05-03T06:25:56;14.80;77.10
39777;DHT22;25453;48.162;14.510;2023-05-03T06:28:23;14.70;76.90
39777;DHT22;25453;48.162;14.510;2023-05-03T06:30:50;14.70;76.70
39777;DHT22;25453;48.162;14.510;2023-05-03T06:33:18;14.70;76.70
39777;DHT22;25453;48.162;14.510;2023-05-03T06:35:45;14.70;76.60
39777;DHT22;25453;48.162;14.510;2023-05-03T06:38:13;14.70;76.70
39777;DHT22;25453;48.162;14.510;2023-05-03T06:40:40;14.80;76.60
39777;DHT22;25453;48.162;14.510;2023-05-03T06:43:08;14.80;76.30
39777;DHT22;25453;48.162;14.510;2023-05-03T06:45:35;14.80;76.30
39777;DHT22;25453;48.162;14.510;2023-05-03T06:48:02;14.80;76.30
39777;DHT22;25453;48.162;14.510;2023-05-03T06:50:30;14.80;76.00
39777;DHT22;25453;48.162;14.510;2023-05-03T06:52:58;14.90;75.90
39777;DHT22;25453;48.162;14.510;2023-05-03T06:55:25;14.90;75.90
39777;DHT22;25453;48.162;14.510;2023-05-03T06:57:53;14.90;75.80
39777;DHT22;25453;48.162;14.510;2023-05-03T07:00:21;14.90;75.70
39777;DHT22;25453;48.162;14.510;2023-05-03T07:02:48;15.00;75.70
39777;DHT22;25453;48.162;14.510;2023-05-03T07:05:16;15.00;75.40
39777;DHT22;25453;48.162;14.510;2023-05-03T07:07:43;15.00;75.30
39777;DHT22;25453;48.162;14.510;2023-05-03T07:10:11;15.00;75.20
39777;DHT22;25453;48.162;14.510;2023-05-03T07:12:38;15.00;75.00
39777;DHT22;25453;48.162;14.510;2023-05-03T07:15:05;15.00;74.90
39777;DHT22;25453;48.162;14.510;2023-05-03T07:17:32;15.00;74.90
39777;DHT22;25453;48.162;14.510;2023-05-03T07:20:03;15.00;74.80
39777;DHT22;25453;48.162;14.510;2023-05-03T07:22:31;15.00;74.90
39777;DHT22;25453;48.162;14.510;2023-05-03T07:24:58;15.00;74.80
39777;DHT22;25453;48.162;14.510;2023-05-03T07:27:27;15.10;74.70
39777;DHT22;25453;48.162;14.510;2023-05-03T07:29:55;15.10;74.70
39777;DHT22;25453;48.162;14.510;2023-05-03T07:32:22;15.10;74.60
39777;DHT22;25453;48.162;14.510;2023-05-03T07:34:49;15.20;74.50
39777;DHT22;25453;48.162;14.510;2023-05-03T07:37:16;15.20;74.40
39777;DHT22;25453;48.162;14.510;2023-05-03T07:39:43;15.20;74.30
39777;DHT22;25453;48.162;14.510;2023-05-03T07:42:11;15.20;74.30
39777;DHT22;25453;48.162;14.510;2023-05-03T07:44:38;15.20;74.20
39777;DHT22;25453;48.162;14.510;2023-05-03T07:47:05;15.20;74.20
39777;DHT22;25453;48.162;14.510;2023-05-03T07:49:33;15.20;74.10
39777;DHT22;25453;48.162;14.510;2023-05-03T07:52:02;15.20;74.00
39777;DHT22;25453;48.162;14.510;2023-05-03T07:54:29;15.20;74.00
39777;DHT22;25453;48.162;14.510;2023-05-03T07:56:57;15.20;74.10
39777;DHT22;25453;48.162;14.510;2023-05-03T07:59:25;15.30;74.20
39777;DHT22;25453;48.162;14.510;2023-05-03T08:01:53;15.30;74.10
39777;DHT22;25453;48.162;14.510;2023-05-03T08:04:20;15.40;74.00
39777;DHT22;25453;48.162;14.510;2023-05-03T08:06:48;15.40;73.90
39777;DHT22;25453;48.162;14.510;2023-05-03T08:09:15;15.50;73.80
39777;DHT22;25453;48.162;14.510;2023-05-03T08:11:43;15.50;73.70
39777;DHT22;25453;48.162;14.510;2023-05-03T08:14:11;15.50;73.60
39777;DHT22;25453;48.162;14.510;2023-05-03T08:16:39;15.50;73.50
39777;DHT22;25453;48.162;14.510;2023-05-03T08:19:06;15.50;73.40
39777;DHT22;25453;48.162;14.510;2023-05-03T08:21:33;15.60;73.40
39777;DHT22;25453;48.162;14.510;2023-05-03T08:24:01;15.60;73.30
39777;DHT22;25453;48.162;14.510;2023-05-03T08:26:32;15.60;73.20
39777;DHT22;25453;48.162;14.510;2023-05-03T08:28:59;15.60;73.00
39777;DHT22;25453;48.162;14.510;2023-05-03T08:31:27;15.60;72.90
39777;DHT22;25453;48.162;14.510;2023-05-03T08:33:56;15.60;72.90
39777;DHT22;25453;48.162;14.510;2023-05-03T08:36:23;15.70;72.90
39777;DHT22;25453;48.162;14.510;2023-05-03T08:38:50;15.70;72.70
39777;DHT22;25453;48.162;14.510;2023-05-03T08:41:21;15.80;72.70
39777;DHT22;25453;48.162;14.510;2023-05-03T08:43:52;15.80;72.60
39777;DHT22;25453;48.162;14.510;2023-05-03T08:46:20;15.80;72.60
39777;DHT22;25453;48.162;14.510;2023-05-03T08:48:48;15.90;72.50
39777;DHT22;25453;48.162;14.510;2023-05-03T08:51:16;15.90;72.30
39777;DHT22;25453;48.162;14.510;2023-05-03T08:53:44;16.00;72.00
39777;DHT22;25453;48.162;14.510;2023-05-03T08:56:15;16.00;71.80
39777;DHT22;25453;48.162;14.510;2023-05-03T08:58:42;16.00;71.70
39777;DHT22;25453;48.162;14.510;2023-05-03T09:01:10;16.00;71.70
39777;DHT22;25453;48.162;14.510;2023-05-03T09:03:37;16.00;71.40
39777;DHT22;25453;48.162;14.510;2023-05-03T09:06:17;16.00;71.30
39777;DHT22;25453;48.162;14.510;2023-05-03T09:08:45;16.00;71.20
39777;DHT22;25453;48.162;14.510;2023-05-03T09:11:20;16.00;71.20
39777;DHT22;25453;48.162;14.510;2023-05-03T09:13:48;16.00;71.30
39777;DHT22;25453;48.162;14.510;2023-05-03T09:16:23;16.00;71.20
39777;DHT22;25453;48.162;14.510;2023-05-03T09:18:59;16.00;71.20
39777;DHT22;25453;48.162;14.510;2023-05-03T09:21:30;16.00;71.20
39777;DHT22;25453;48.162;14.510;2023-05-03T09:23:58;16.00;71.20
39777;DHT22;25453;48.162;14.510;2023-05-03T09:26:30;16.00;71.20
39777;DHT22;25453;48.162;14.510;2023-05-03T09:28:58;16.00;71.10
39777;DHT22;25453;48.162;14.510;2023-05-03T09:31:29;16.10;70.90
39777;DHT22;25453;48.162;14.510;2023-05-03T09:33:56;16.10;70.80
39777;DHT22;25453;48.162;14.510;2023-05-03T09:36:25;16.00;70.80
39777;DHT22;25453;48.162;14.510;2023-05-03T09:38:58;16.00;70.80
39777;DHT22;25453;48.162;14.510;2023-05-03T09:41:42;16.00;70.70
39777;DHT22;25453;48.162;14.510;2023-05-03T09:44:09;16.00;70.70
39777;DHT22;25453;48.162;14.510;2023-05-03T09:46:37;16.00;70.80
39777;DHT22;25453;48.162;14.510;2023-05-03T09:49:04;16.10;70.80
39777;DHT22;25453;48.162;14.510;2023-05-03T09:51:32;16.10;70.90
39777;DHT22;25453;48.162;14.510;2023-05-03T09:53:59;16.20;70.90
39777;DHT22;25453;48.162;14.510;2023-05-03T09:56:27;16.20;70.70
39777;DHT22;25453;48.162;14.510;2023-05-03T09:58:55;16.30;70.60
39777;DHT22;25453;48.162;14.510;2023-05-03T10:01:25;16.30;70.40
39777;DHT22;25453;48.162;14.510;2023-05-03T10:03:52;16.40;70.30
39777;DHT22;25453;48.162;14.510;2023-05-03T10:06:41;16.40;70.30
39777;DHT22;25453;48.162;14.510;2023-05-03T10:09:20;16.40;70.20
39777;DHT22;25453;48.162;14.510;2023-05-03T10:11:54;16.50;70.00
39777;DHT22;25453;48.162;14.510;2023-05-03T10:14:25;16.50;70.00
39777;DHT22;25453;48.162;14.510;2023-05-03T10:16:57;16.50;69.90
39777;DHT22;25453;48.162;14.510;2023-05-03T10:19:28;16.50;69.80
39777;DHT22;25453;48.162;14.510;2023-05-03T10:25:19;16.60;69.60
39777;DHT22;25453;48.162;14.510;2023-05-03T10:27:20;16.60;69.50
39777;DHT22;25453;48.162;14.510;2023-05-03T10:29:49;16.70;69.30
39777;DHT22;25453;48.162;14.510;2023-05-03T10:32:27;16.70;69.40
39777;DHT22;25453;48.162;14.510;2023-05-03T10:35:16;16.80;69.30
39777;DHT22;25453;48.162;14.510;2023-05-03T10:37:42;16.90;69.20
39777;DHT22;25453;48.162;14.510;2023-05-03T10:40:11;16.90;68.90
39777;DHT22;25453;48.162;14.510;2023-05-03T10:42:45;17.00;68.70
39777;DHT22;25453;48.162;14.510;2023-05-03T10:45:25;17.00;68.40
39777;DHT22;25453;48.162;14.510;2023-05-03T10:50:40;17.20;68.70
39777;DHT22;25453;48.162;14.510;2023-05-03T10:53:07;17.30;68.40
39777;DHT22;25453;48.162;14.510;2023-05-03T10:56:06;17.40;68.10
39777;DHT22;25453;48.162;14.510;2023-05-03T10:58:41;17.50;67.70
39777;DHT22;25453;48.162;14.510;2023-05-03T11:01:09;17.60;67.60
39777;DHT22;25453;48.162;14.510;2023-05-03T11:06:29;17.90;67.00
39777;DHT22;25453;48.162;14.510;2023-05-03T11:09:01;17.90;66.50
39777;DHT22;25453;48.162;14.510;2023-05-03T11:11:36;18.00;66.20
39777;DHT22;25453;48.162;14.510;2023-05-03T11:14:05;17.90;66.00
39777;DHT22;25453;48.162;14.510;2023-05-03T11:16:34;17.90;65.60
39777;DHT22;25453;48.162;14.510;2023-05-03T11:19:03;17.90;65.00
39777;DHT22;25453;48.162;14.510;2023-05-03T11:21:31;17.70;64.60
39777;DHT22;25453;48.162;14.510;2023-05-03T11:23:59;17.60;64.80
39777;DHT22;25453;48.162;14.510;2023-05-03T11:26:27;17.50;65.10
39777;DHT22;25453;48.162;14.510;2023-05-03T11:28:55;17.50;65.20
39777;DHT22;25453;48.162;14.510;2023-05-03T11:31:23;17.60;65.60
39777;DHT22;25453;48.162;14.510;2023-05-03T11:33:51;17.70;65.70
39777;DHT22;25453;48.162;14.510;2023-05-03T11:36:18;17.80;65.40
39777;DHT22;25453;48.162;14.510;2023-05-03T11:38:46;17.90;65.10
39777;DHT22;25453;48.162;14.510;2023-05-03T11:41:14;17.90;64.70
39777;DHT22;25453;48.162;14.510;2023-05-03T11:43:45;17.90;64.50
39777;DHT22;25453;48.162;14.510;2023-05-03T11:46:18;17.80;64.30
39777;DHT22;25453;48.162;14.510;2023-05-03T11:48:47;17.80;64.20
39777;DHT22;25453;48.162;14.510;2023-05-03T11:51:16;17.80;64.30
39777;DHT22;25453;48.162;14.510;2023-05-03T11:53:47;17.70;64.20
39777;DHT22;25453;48.162;14.510;2023-05-03T11:56:14;17.70;64.10
39777;DHT22;25453;48.162;14.510;2023-05-03T12:01:19;17.50;64.00
39777;DHT22;25453;48.162;14.510;2023-05-03T12:03:51;17.50;64.00
39777;DHT22;25453;48.162;14.510;2023-05-03T12:06:19;17.50;64.10
39777;DHT22;25453;48.162;14.510;2023-05-03T12:08:47;17.50;64.20
39777;DHT22;25453;48.162;14.510;2023-05-03T12:11:15;17.40;64.30
39777;DHT22;25453;48.162;14.510;2023-05-03T12:13:54;17.50;64.40
39777;DHT22;25453;48.162;14.510;2023-05-03T12:16:23;17.60;64.80
39777;DHT22;25453;48.162;14.510;2023-05-03T12:18:54;17.90;65.10
39777;DHT22;25453;48.162;14.510;2023-05-03T12:21:45;18.20;64.50
39777;DHT22;25453;48.162;14.510;2023-05-03T12:24:29;18.60;64.50
39777;DHT22;25453;48.162;14.510;2023-05-03T12:26:59;19.10;63.80
39777;DHT22;25453;48.162;14.510;2023-05-03T12:29:28;19.50;62.60
39777;DHT22;25453;48.162;14.510;2023-05-03T12:32:01;19.80;61.90
39777;DHT22;25453;48.162;14.510;2023-05-03T12:34:30;20.10;60.80
39777;DHT22;25453;48.162;14.510;2023-05-03T12:37:01;20.10;59.50
39777;DHT22;25453;48.162;14.510;2023-05-03T12:39:32;20.00;57.90
39777;DHT22;25453;48.162;14.510;2023-05-03T12:42:05;19.70;57.40
39777;DHT22;25453;48.162;14.510;2023-05-03T12:44:37;19.40;57.70
39777;DHT22;25453;48.162;14.510;2023-05-03T12:47:08;19.10;58.00
39777;DHT22;25453;48.162;14.510;2023-05-03T12:49:36;18.90;58.30
39777;DHT22;25453;48.162;14.510;2023-05-03T12:52:05;18.70;58.50
39777;DHT22;25453;48.162;14.510;2023-05-03T12:54:35;18.60;58.70
39777;DHT22;25453;48.162;14.510;2023-05-03T12:57:07;18.50;59.00
39777;DHT22;25453;48.162;14.510;2023-05-03T12:59:41;18.60;59.20
39777;DHT22;25453;48.162;14.510;2023-05-03T13:02:17;18.50;58.90
39777;DHT22;25453;48.162;14.510;2023-05-03T13:05:04;18.50;59.20
39777;DHT22;25453;48.162;14.510;2023-05-03T13:07:40;18.70;59.60
39777;DHT22;25453;48.162;14.510;2023-05-03T13:10:09;18.80;59.20
39777;DHT22;25453;48.162;14.510;2023-05-03T13:12:39;18.90;59.00
39777;DHT22;25453;48.162;14.510;2023-05-03T13:15:07;19.00;59.00
39777;DHT22;25453;48.162;14.510;2023-05-03T13:17:34;19.10;59.10
39777;DHT22;25453;48.162;14.510;2023-05-03T13:20:03;19.30;58.90
39777;DHT22;25453;48.162;14.510;2023-05-03T13:22:33;19.50;58.50
39777;DHT22;25453;48.162;14.510;2023-05-03T13:25:00;19.70;57.80
39777;DHT22;25453;48.162;14.510;2023-05-03T13:27:29;19.90;57.70
39777;DHT22;25453;48.162;14.510;2023-05-03T13:29:56;19.90;57.10
39777;DHT22;25453;48.162;14.510;2023-05-03T13:32:24;19.90;56.70
39777;DHT22;25453;48.162;14.510;2023-05-03T13:34:51;19.80;56.40
39777;DHT22;25453;48.162;14.510;2023-05-03T13:37:19;19.70;56.20
39777;DHT22;25453;48.162;14.510;2023-05-03T13:39:46;19.60;56.10
39777;DHT22;25453;48.162;14.510;2023-05-03T13:42:13;19.50;56.10
39777;DHT22;25453;48.162;14.510;2023-05-03T13:44:41;19.40;56.00
39777;DHT22;25453;48.162;14.510;2023-05-03T13:47:10;19.30;56.00
39777;DHT22;25453;48.162;14.510;2023-05-03T13:49:37;19.10;56.00
39777;DHT22;25453;48.162;14.510;2023-05-03T13:52:04;19.00;55.90
39777;DHT22;25453;48.162;14.510;2023-05-03T13:54:31;18.80;56.20
39777;DHT22;25453;48.162;14.510;2023-05-03T13:57:01;18.70;56.30
39777;DHT22;25453;48.162;14.510;2023-05-03T13:59:28;18.60;56.40
39777;DHT22;25453;48.162;14.510;2023-05-03T14:01:55;18.50;56.60
39777;DHT22;25453;48.162;14.510;2023-05-03T14:04:22;18.50;56.90
39777;DHT22;25453;48.162;14.510;2023-05-03T14:06:51;18.40;57.10
39777;DHT22;25453;48.162;14.510;2023-05-03T14:09:20;18.30;57.20
39777;DHT22;25453;48.162;14.510;2023-05-03T14:11:51;18.20;57.30
39777;DHT22;25453;48.162;14.510;2023-05-03T14:14:24;18.10;57.60
39777;DHT22;25453;48.162;14.510;2023-05-03T14:16:52;18.10;57.90
39777;DHT22;25453;48.162;14.510;2023-05-03T14:19:20;18.00;58.30
39777;DHT22;25453;48.162;14.510;2023-05-03T14:21:47;18.00;58.60
39777;DHT22;25453;48.162;14.510;2023-05-03T14:24:17;17.90;58.80
39777;DHT22;25453;48.162;14.510;2023-05-03T14:26:45;17.90;59.10
39777;DHT22;25453;48.162;14.510;2023-05-03T14:29:13;17.90;59.40
39777;DHT22;25453;48.162;14.510;2023-05-03T14:31:40;17.80;59.70
39777;DHT22;25453;48.162;14.510;2023-05-03T14:34:07;17.80;59.80
39777;DHT22;25453;48.162;14.510;2023-05-03T14:36:35;17.70;59.90
39777;DHT22;25453;48.162;14.510;2023-05-03T14:39:04;17.60;60.10
39777;DHT22;25453;48.162;14.510;2023-05-03T14:41:32;17.50;60.30
39777;DHT22;25453;48.162;14.510;2023-05-03T14:44:00;17.50;60.50
39777;DHT22;25453;48.162;14.510;2023-05-03T14:46:28;17.40;60.70
39777;DHT22;25453;48.162;14.510;2023-05-03T14:48:56;17.40;60.90
39777;DHT22;25453;48.162;14.510;2023-05-03T14:51:23;17.40;61.00
39777;DHT22;25453;48.162;14.510;2023-05-03T14:53:50;17.40;61.10
39777;DHT22;25453;48.162;14.510;2023-05-03T14:56:18;17.40;61.20
39777;DHT22;25453;48.162;14.510;2023-05-03T14:58:45;17.40;61.20
39777;DHT22;25453;48.162;14.510;2023-05-03T15:01:16;17.40;61.40
39777;DHT22;25453;48.162;14.510;2023-05-03T15:03:44;17.40;61.60
39777;DHT22;25453;48.162;14.510;2023-05-03T15:06:12;17.30;61.70
39777;DHT22;25453;48.162;14.510;2023-05-03T15:08:40;17.30;61.80
39777;DHT22;25453;48.162;14.510;2023-05-03T15:11:07;17.30;61.90
39777;DHT22;25453;48.162;14.510;2023-05-03T15:13:34;17.30;61.90
39777;DHT22;25453;48.162;14.510;2023-05-03T15:16:02;17.30;62.10
39777;DHT22;25453;48.162;14.510;2023-05-03T15:18:29;17.20;62.10
39777;DHT22;25453;48.162;14.510;2023-05-03T15:20:56;17.20;62.30
39777;DHT22;25453;48.162;14.510;2023-05-03T15:23:23;17.20;62.50
39777;DHT22;25453;48.162;14.510;2023-05-03T15:25:50;17.20;62.50
39777;DHT22;25453;48.162;14.510;2023-05-03T15:28:19;17.10;62.60
39777;DHT22;25453;48.162;14.510;2023-05-03T15:30:47;17.20;62.80
39777;DHT22;25453;48.162;14.510;2023-05-03T15:33:14;17.10;62.90
39777;DHT22;25453;48.162;14.510;2023-05-03T15:35:42;17.20;62.90
39777;DHT22;25453;48.162;14.510;2023-05-03T15:38:10;17.20;63.00
39777;DHT22;25453;48.162;14.510;2023-05-03T15:40:37;17.20;63.00
39777;DHT22;25453;48.162;14.510;2023-05-03T15:43:04;17.20;63.00
39777;DHT22;25453;48.162;14.510;2023-05-03T15:45:32;17.20;63.10